createdAt,value
2022-09-05T00:00:45.586Z,46.01
2022-09-05T00:01:45.607Z,43.14
2022-09-05T00:02:48.762Z,42.15
2022-09-05T00:03:45.696Z,41.32
2022-09-05T00:04:45.556Z,43.77
2022-09-05T00:05:59.984Z,48.10
2022-09-05T00:06:46.539Z,47.89
2022-09-05T00:07:59.375Z,45.73
2022-09-05T00:08:46.516Z,50.31
2022-09-05T00:09:45.503Z,47.36
2022-09-05T00:11:42.066Z,41.13
2022-09-05T00:11:46.504Z,52.22
2022-09-05T00:12:45.480Z,42.70
2022-09-05T00:13:45.459Z,49.14
2022-09-05T00:15:17.757Z,41.92
2022-09-05T00:15:46.496Z,46.54
2022-09-05T00:16:45.458Z,50.61
2022-09-05T00:18:45.469Z,48.97
2022-09-05T00:23:48.478Z,51.68
2022-09-05T00:24:20.851Z,45.80
2022-09-05T00:24:22.250Z,46.99
2022-09-05T00:24:26.946Z,43.25
2022-09-05T00:24:29.217Z,45.28
2022-09-05T00:24:29.485Z,43.17
2022-09-05T00:25:00.979Z,50.00
2022-09-05T00:25:47.340Z,54.41
2022-09-05T00:26:50.310Z,44.16
2022-09-05T00:27:45.318Z,41.11
2022-09-05T00:28:45.308Z,41.29
2022-09-05T00:31:08.115Z,44.71
2022-09-05T00:31:51.180Z,45.05
2022-09-05T00:31:55.804Z,44.86
2022-09-05T00:32:46.325Z,48.35
2022-09-05T00:33:45.268Z,45.81
2022-09-05T00:34:48.130Z,40.83
2022-09-05T00:35:45.238Z,45.81
2022-09-05T00:36:45.248Z,51.53
2022-09-05T00:37:45.210Z,42.56
2022-09-05T00:38:45.221Z,42.47
2022-09-05T00:39:47.721Z,44.70
2022-09-05T00:40:45.187Z,44.40
2022-09-05T00:41:45.171Z,45.56
2022-09-05T00:42:45.596Z,59.18
2022-09-05T00:43:45.198Z,45.24
2022-09-05T00:44:45.146Z,49.38
2022-09-05T00:45:45.193Z,44.14
2022-09-05T00:46:45.194Z,47.65
2022-09-05T00:47:48.229Z,42.05
2022-09-05T00:48:45.107Z,41.52
2022-09-05T00:49:45.102Z,47.02
2022-09-05T00:50:45.103Z,49.39
2022-09-05T00:51:45.073Z,41.46
2022-09-05T00:53:06.282Z,51.07
2022-09-05T00:53:46.057Z,46.68
2022-09-05T00:54:45.046Z,43.96
2022-09-05T00:55:45.030Z,42.90
2022-09-05T00:56:45.036Z,45.05
2022-09-05T00:57:45.027Z,51.31
2022-09-05T00:58:45.008Z,43.39
2022-09-05T00:59:50.907Z,46.95
2022-09-05T01:00:45.987Z,47.52
2022-09-05T01:01:45.112Z,52.98
2022-09-05T01:02:51.956Z,46.37
2022-09-05T01:03:45.974Z,46.88
2022-09-05T01:04:44.946Z,51.03
2022-09-05T01:05:44.943Z,45.48
2022-09-05T01:06:44.927Z,46.61
2022-09-05T01:07:46.790Z,48.55
2022-09-05T01:08:44.921Z,43.47
2022-09-05T01:09:44.899Z,51.06
2022-09-05T01:10:44.883Z,45.64
2022-09-05T01:11:44.879Z,61.42
2022-09-05T01:12:50.369Z,54.40
2022-09-05T01:13:45.879Z,46.01
2022-09-05T01:14:44.827Z,44.58
2022-09-05T01:15:45.877Z,42.11
2022-09-05T01:16:45.161Z,41.39
2022-09-05T01:17:44.807Z,42.22
2022-09-05T01:18:44.821Z,51.56
2022-09-05T01:19:44.799Z,45.60
2022-09-05T01:20:45.312Z,49.05
2022-09-05T01:21:48.118Z,43.87
2022-09-05T01:22:44.760Z,48.92
2022-09-05T01:24:16.677Z,46.84
2022-09-05T01:24:45.747Z,50.75
2022-09-05T01:25:47.186Z,49.94
2022-09-05T01:26:45.721Z,48.23
2022-09-05T01:29:15.524Z,50.33
2022-09-05T01:29:17.314Z,66.02
2022-09-05T01:29:45.716Z,49.98
2022-09-05T01:30:44.784Z,44.89
2022-09-05T01:31:44.671Z,46.85
2022-09-05T01:32:44.662Z,44.18
2022-09-05T01:33:44.659Z,46.72
2022-09-05T01:34:44.664Z,47.27
2022-09-05T01:36:03.385Z,48.44
2022-09-05T01:36:45.615Z,48.30
2022-09-05T01:37:44.616Z,43.53
2022-09-05T01:39:09.631Z,45.40
2022-09-05T01:40:10.955Z,42.45
2022-09-05T01:40:51.598Z,42.86
2022-09-05T01:41:45.566Z,48.74
2022-09-05T01:42:44.557Z,43.04
2022-09-05T01:43:44.550Z,57.47
2022-09-05T01:44:44.565Z,46.32
2022-09-05T01:45:44.572Z,47.49
2022-09-05T01:46:44.569Z,52.44
2022-09-05T01:47:44.521Z,60.31
2022-09-05T01:48:47.788Z,44.92
2022-09-05T01:49:44.478Z,49.69
2022-09-05T01:50:44.469Z,46.77
2022-09-05T01:51:44.473Z,50.21
2022-09-05T01:52:49.412Z,54.13
2022-09-05T01:53:45.462Z,47.08
2022-09-05T01:54:44.444Z,51.60
2022-09-05T01:56:04.098Z,51.76
2022-09-05T01:56:45.402Z,61.28
2022-09-05T01:57:45.393Z,49.08
2022-09-05T01:58:44.408Z,48.66
2022-09-05T01:59:45.832Z,48.60
2022-09-05T02:00:44.379Z,51.88
2022-09-05T02:01:44.386Z,50.16
2022-09-05T02:02:50.493Z,51.60
2022-09-05T02:03:45.368Z,60.90
2022-09-05T02:04:44.329Z,52.88
2022-09-05T02:05:48.385Z,49.80
2022-09-05T02:06:45.397Z,46.95
2022-09-05T02:07:44.306Z,53.57
2022-09-05T02:08:44.295Z,51.39
2022-09-05T02:09:44.301Z,48.29
2022-09-05T02:10:44.325Z,48.02
2022-09-05T02:11:44.260Z,47.84
2022-09-05T02:12:44.263Z,45.00
2022-09-05T02:13:45.238Z,44.38
2022-09-05T02:14:44.229Z,46.57
2022-09-05T02:15:59.435Z,45.94
2022-09-05T02:16:45.219Z,53.70
2022-09-05T02:17:51.074Z,50.46
2022-09-05T02:18:45.193Z,46.88
2022-09-05T02:19:44.180Z,50.47
2022-09-05T02:20:44.171Z,50.04
2022-09-05T02:21:55.328Z,53.96
2022-09-05T02:22:45.145Z,50.74
2022-09-05T02:23:44.522Z,59.68
2022-09-05T02:24:44.132Z,53.35
2022-09-05T02:26:01.318Z,54.18
2022-09-05T02:26:45.111Z,54.28
2022-09-05T02:28:05.459Z,51.28
2022-09-05T02:28:45.106Z,48.86
2022-09-05T02:29:44.081Z,47.76
2022-09-05T02:31:06.757Z,51.08
2022-09-05T02:31:45.074Z,48.39
2022-09-05T02:32:44.051Z,49.35
2022-09-05T02:33:44.048Z,48.58
2022-09-05T02:34:44.023Z,53.33
2022-09-05T02:35:44.023Z,45.05
2022-09-05T02:36:44.013Z,46.73
2022-09-05T02:40:29.844Z,44.39
2022-09-05T02:45:00.554Z,46.47
2022-09-05T02:45:00.956Z,52.04
2022-09-05T02:45:12.352Z,48.14
2022-09-05T02:45:12.504Z,49.72
2022-09-05T02:45:15.178Z,55.38
2022-09-05T02:45:18.029Z,50.51
2022-09-05T02:45:19.717Z,48.16
2022-09-05T02:45:45.005Z,52.23
2022-09-05T02:46:44.009Z,52.13
2022-09-05T02:47:43.901Z,49.60
2022-09-05T02:48:43.885Z,63.80
2022-09-05T02:54:27.777Z,52.78
2022-09-05T02:57:00.546Z,49.01
2022-09-05T02:57:23.459Z,52.77
2022-09-05T02:57:29.696Z,54.24
2022-09-05T02:57:33.719Z,55.12
2022-09-05T02:57:38.560Z,51.22
2022-09-05T02:57:40.449Z,50.27
2022-09-05T02:57:41.590Z,56.66
2022-09-05T02:58:05.991Z,57.28
2022-09-05T02:59:08.423Z,51.37
2022-09-05T02:59:45.785Z,50.82
2022-09-05T03:00:43.765Z,52.77
2022-09-05T03:01:43.792Z,52.33
2022-09-05T03:02:43.816Z,56.73
2022-09-05T03:03:43.737Z,53.03
2022-09-05T03:04:43.722Z,53.55
2022-09-05T03:05:43.723Z,53.73
2022-09-05T03:06:43.731Z,53.08
2022-09-05T03:07:43.700Z,51.67
2022-09-05T03:08:43.692Z,54.29
2022-09-05T03:09:43.721Z,55.57
2022-09-05T03:10:53.807Z,54.16
2022-09-05T03:11:44.663Z,50.99
2022-09-05T03:12:43.678Z,64.59
2022-09-05T03:13:53.814Z,53.72
2022-09-05T03:14:43.638Z,50.63
2022-09-05T03:15:43.622Z,53.88
2022-09-05T03:16:47.212Z,51.78
2022-09-05T03:17:43.599Z,56.36
2022-09-05T03:18:43.635Z,51.13
2022-09-05T03:19:46.715Z,51.34
2022-09-05T03:20:43.590Z,51.73
2022-09-05T03:21:43.576Z,52.75
2022-09-05T03:22:43.561Z,52.99
2022-09-05T03:23:43.564Z,52.06
2022-09-05T03:24:48.134Z,52.35
2022-09-05T03:25:44.535Z,51.75
2022-09-05T03:26:43.509Z,54.79
2022-09-05T03:27:44.517Z,56.73
2022-09-05T03:28:43.499Z,55.25
2022-09-05T03:29:43.514Z,54.46
2022-09-05T03:30:43.563Z,56.20
2022-09-05T03:31:43.461Z,56.80
2022-09-05T03:32:43.477Z,55.10
2022-09-05T03:33:43.460Z,55.99
2022-09-05T03:34:43.434Z,55.82
2022-09-05T03:35:43.428Z,55.99
2022-09-05T03:36:43.438Z,61.39
2022-09-05T03:37:43.405Z,55.92
2022-09-05T03:38:47.228Z,57.45
2022-09-05T03:39:43.502Z,57.65
2022-09-05T03:40:43.390Z,56.06
2022-09-05T03:41:43.395Z,56.20
2022-09-05T03:42:43.421Z,57.71
2022-09-05T03:43:43.369Z,57.11
2022-09-05T03:44:43.350Z,56.83
2022-09-05T03:45:43.364Z,64.27
2022-09-05T03:46:43.324Z,55.37
2022-09-05T03:47:43.325Z,55.56
2022-09-05T03:48:43.313Z,55.19
2022-09-05T03:51:39.448Z,53.56
2022-09-05T03:51:41.798Z,55.79
2022-09-05T03:57:04.973Z,54.63
2022-09-05T03:57:14.290Z,55.98
2022-09-05T03:57:14.633Z,56.94
2022-09-05T03:57:17.190Z,56.92
2022-09-05T03:57:25.711Z,57.18
2022-09-05T03:57:26.847Z,54.17
2022-09-05T03:57:45.209Z,57.03
2022-09-05T03:58:59.387Z,54.94
2022-09-05T03:59:45.209Z,54.83
2022-09-05T04:00:43.201Z,55.20
2022-09-05T04:04:03.673Z,56.07
2022-09-05T04:08:10.189Z,62.33
2022-09-05T04:08:10.650Z,54.91
2022-09-05T04:08:15.789Z,55.65
2022-09-05T04:08:17.764Z,54.48
2022-09-05T04:08:26.623Z,56.11
2022-09-05T04:08:26.703Z,57.34
2022-09-05T04:08:44.457Z,56.58
2022-09-05T04:09:51.142Z,54.06
2022-09-05T04:10:45.169Z,55.78
2022-09-05T04:11:43.072Z,57.48
2022-09-05T04:12:43.062Z,56.37
2022-09-05T04:13:43.049Z,56.74
2022-09-05T04:14:43.055Z,56.33
2022-09-05T04:15:43.035Z,57.65
2022-09-05T04:16:43.075Z,57.32
2022-09-05T04:17:43.027Z,56.45
2022-09-05T04:18:43.000Z,56.43
2022-09-05T04:19:42.989Z,58.26
2022-09-05T04:20:43.989Z,54.68
2022-09-05T04:21:42.983Z,54.32
2022-09-05T04:22:42.971Z,57.89
2022-09-05T04:23:42.967Z,58.96
2022-09-05T04:24:43.004Z,58.30
2022-09-05T04:25:42.930Z,56.67
2022-09-05T04:26:42.928Z,57.22
2022-09-05T04:27:42.912Z,56.17
2022-09-05T04:28:43.019Z,56.43
2022-09-05T04:29:43.909Z,57.88
2022-09-05T04:30:42.883Z,59.21
2022-09-05T04:31:42.929Z,57.83
2022-09-05T04:32:42.882Z,57.60
2022-09-05T04:33:42.851Z,55.86
2022-09-05T04:34:42.866Z,55.17
2022-09-05T04:35:42.831Z,57.32
2022-09-05T04:36:42.828Z,58.55
2022-09-05T04:37:48.631Z,59.92
2022-09-05T04:38:42.801Z,56.82
2022-09-05T04:39:42.829Z,55.89
2022-09-05T04:40:42.782Z,64.21
2022-09-05T04:41:42.768Z,57.80
2022-09-05T04:42:42.784Z,59.61
2022-09-05T04:43:42.759Z,58.86
2022-09-05T04:44:42.743Z,58.52
2022-09-05T04:45:42.785Z,58.48
2022-09-05T04:46:47.423Z,60.19
2022-09-05T04:47:43.731Z,60.63
2022-09-05T04:48:42.701Z,58.45
2022-09-05T04:49:42.704Z,57.91
2022-09-05T04:50:42.686Z,58.27
2022-09-05T04:51:44.044Z,56.91
2022-09-05T04:52:42.678Z,59.14
2022-09-05T04:53:42.659Z,56.49
2022-09-05T04:54:42.643Z,56.23
2022-09-05T04:55:46.821Z,58.26
2022-09-05T04:56:43.638Z,58.13
2022-09-05T04:57:42.625Z,57.53
2022-09-05T04:59:41.930Z,56.74
2022-09-05T05:04:41.015Z,56.70
2022-09-05T05:05:58.863Z,58.21
2022-09-05T05:06:02.049Z,57.65
2022-09-05T05:06:12.050Z,58.22
2022-09-05T05:06:17.931Z,57.83
2022-09-05T05:06:19.739Z,58.68
2022-09-05T05:06:23.464Z,59.40
2022-09-05T05:06:46.435Z,57.92
2022-09-05T05:07:43.586Z,57.12
2022-09-05T05:08:42.567Z,57.79
2022-09-05T05:09:42.525Z,58.88
2022-09-05T05:16:59.361Z,57.32
2022-09-05T05:17:55.976Z,57.93
2022-09-05T05:17:57.610Z,58.23
2022-09-05T05:17:59.037Z,59.09
2022-09-05T05:18:01.320Z,58.77
2022-09-05T05:18:08.630Z,57.96
2022-09-05T05:18:14.833Z,57.94
2022-09-05T05:18:15.972Z,57.36
2022-09-05T05:18:57.869Z,59.36
2022-09-05T05:19:43.447Z,62.52
2022-09-05T05:20:43.972Z,57.95
2022-09-05T05:21:43.387Z,57.69
2022-09-05T05:22:42.372Z,57.37
2022-09-05T05:23:42.367Z,57.59
2022-09-05T05:24:42.370Z,59.20
2022-09-05T05:25:42.371Z,57.78
2022-09-05T05:26:42.339Z,57.87
2022-09-05T05:27:42.327Z,58.09
2022-09-05T05:28:42.313Z,60.40
2022-09-05T05:29:42.333Z,58.08
2022-09-05T05:30:42.285Z,57.29
2022-09-05T05:31:42.312Z,60.11
2022-09-05T05:32:45.014Z,59.43
2022-09-05T05:33:42.252Z,56.18
2022-09-05T05:34:43.268Z,56.27
2022-09-05T05:35:48.489Z,58.39
2022-09-05T05:36:43.257Z,63.26
2022-09-05T05:37:42.233Z,56.54
2022-09-05T05:38:42.214Z,58.76
2022-09-05T05:39:42.228Z,58.14
2022-09-05T05:40:51.070Z,56.66
2022-09-05T05:41:43.210Z,56.62
2022-09-05T05:42:42.182Z,56.68
2022-09-05T05:43:46.220Z,57.72
2022-09-05T05:44:43.194Z,56.39
2022-09-05T05:45:42.168Z,55.04
2022-09-05T05:46:42.185Z,56.60
2022-09-05T05:47:42.127Z,55.14
2022-09-05T05:48:42.186Z,55.99
2022-09-05T05:49:42.106Z,56.46
2022-09-05T05:50:42.097Z,55.30
2022-09-05T05:52:01.296Z,54.60
2022-09-05T05:52:44.099Z,55.88
2022-09-05T05:53:42.879Z,56.05
2022-09-05T05:54:42.058Z,57.48
2022-09-05T05:55:52.196Z,57.15
2022-09-05T05:56:42.030Z,55.09
2022-09-05T05:57:42.049Z,56.98
2022-09-05T05:58:42.014Z,52.50
2022-09-05T05:59:41.999Z,54.90
2022-09-05T06:00:42.987Z,54.67
2022-09-05T06:01:42.045Z,53.05
2022-09-05T06:02:42.121Z,55.09
2022-09-05T06:03:42.038Z,53.42
2022-09-05T06:04:44.766Z,55.17
2022-09-05T06:05:41.947Z,55.46
2022-09-05T06:06:41.960Z,55.18
2022-09-05T06:07:48.301Z,55.89
2022-09-05T06:12:28.036Z,54.64
2022-09-05T06:14:51.107Z,57.89
2022-09-05T06:14:56.180Z,54.93
2022-09-05T06:14:57.127Z,54.55
2022-09-05T06:15:01.763Z,53.73
2022-09-05T06:15:04.095Z,55.99
2022-09-05T06:15:09.169Z,54.53
2022-09-05T06:15:42.861Z,61.99
2022-09-05T06:16:41.882Z,54.51
2022-09-05T06:17:41.860Z,54.50
2022-09-05T06:18:42.592Z,54.54
2022-09-05T06:20:03.331Z,61.00
2022-09-05T06:22:07.252Z,53.16
2022-09-05T06:22:10.393Z,54.94
2022-09-05T06:22:42.815Z,54.88
2022-09-05T06:23:41.987Z,54.86
2022-09-05T06:24:41.797Z,54.10
2022-09-05T06:25:41.764Z,54.16
2022-09-05T06:26:41.747Z,51.71
2022-09-05T06:28:02.238Z,50.86
2022-09-05T06:28:42.754Z,53.93
2022-09-05T06:29:46.464Z,55.06
2022-09-05T06:30:43.712Z,54.24
2022-09-05T06:31:41.787Z,53.84
2022-09-05T06:32:49.271Z,55.09
2022-09-05T06:33:42.682Z,54.57
2022-09-05T06:34:41.694Z,51.31
2022-09-05T06:35:41.668Z,54.67
2022-09-05T06:36:41.656Z,52.84
2022-09-05T06:37:41.656Z,55.44
2022-09-05T06:38:41.642Z,54.88
2022-09-05T06:39:46.537Z,52.29
2022-09-05T06:40:41.623Z,57.62
2022-09-05T06:41:41.619Z,55.90
2022-09-05T06:42:43.656Z,54.71
2022-09-05T06:43:41.597Z,53.71
2022-09-05T06:44:41.578Z,55.50
2022-09-05T06:45:41.638Z,58.90
2022-09-05T06:47:22.982Z,53.24
2022-09-05T06:47:42.602Z,53.34
2022-09-05T06:48:46.503Z,55.71
2022-09-05T06:49:45.994Z,53.84
2022-09-05T06:51:07.104Z,56.79
2022-09-05T06:51:44.709Z,51.52
2022-09-05T06:52:41.529Z,56.25
2022-09-05T06:53:41.511Z,53.99
2022-09-05T06:54:41.509Z,56.61
2022-09-05T06:55:42.500Z,72.06
2022-09-05T06:56:41.480Z,60.58
2022-09-05T06:57:44.086Z,55.00
2022-09-05T06:58:41.473Z,56.95
2022-09-05T06:59:41.444Z,56.33
2022-09-05T07:00:41.538Z,54.97
2022-09-05T07:01:59.485Z,54.87
2022-09-05T07:02:58.109Z,54.49
2022-09-05T07:03:42.416Z,56.84
2022-09-05T07:05:23.702Z,53.17
2022-09-05T07:05:45.104Z,55.33
2022-09-05T07:06:52.388Z,53.86
2022-09-05T07:07:45.796Z,55.60
2022-09-05T07:08:42.367Z,54.87
2022-09-05T07:09:41.401Z,54.08
2022-09-05T07:10:41.358Z,55.30
2022-09-05T07:11:41.338Z,55.46
2022-09-05T07:12:41.335Z,56.72
2022-09-05T07:13:42.733Z,52.60
2022-09-05T07:14:41.325Z,52.76
2022-09-05T07:15:41.328Z,53.29
2022-09-05T07:16:41.424Z,53.55
2022-09-05T07:18:06.500Z,52.84
2022-09-05T07:18:43.288Z,54.72
2022-09-05T07:19:41.255Z,52.59
2022-09-05T07:21:12.312Z,55.23
2022-09-05T07:21:43.096Z,54.27
2022-09-05T07:22:48.933Z,55.63
2022-09-05T07:24:09.986Z,53.49
2022-09-05T07:24:54.582Z,52.43
2022-09-05T07:25:42.232Z,53.30
2022-09-05T07:26:51.551Z,54.01
2022-09-05T07:28:27.078Z,54.76
2022-09-05T07:28:42.212Z,54.63
2022-09-05T07:29:41.178Z,51.75
2022-09-05T07:30:41.175Z,53.70
2022-09-05T07:31:41.195Z,53.41
2022-09-05T07:32:41.156Z,53.63
2022-09-05T07:33:41.159Z,52.34
2022-09-05T07:34:41.133Z,55.06
2022-09-05T07:35:42.403Z,58.90
2022-09-05T07:36:41.122Z,54.86
2022-09-05T07:37:41.104Z,53.21
2022-09-05T07:38:54.867Z,54.04
2022-09-05T07:39:42.113Z,52.48
2022-09-05T07:40:41.144Z,54.87
2022-09-05T07:41:41.085Z,54.16
2022-09-05T07:42:41.065Z,54.80
2022-09-05T07:43:41.072Z,54.27
2022-09-05T07:44:41.047Z,55.34
2022-09-05T07:45:41.926Z,55.92
2022-09-05T07:46:42.037Z,53.72
2022-09-05T07:47:41.027Z,53.92
2022-09-05T07:48:41.003Z,54.63
2022-09-05T07:49:47.615Z,58.01
2022-09-05T07:55:18.824Z,56.19
2022-09-05T07:56:48.948Z,54.21
2022-09-05T07:56:52.223Z,52.70
2022-09-05T07:56:55.290Z,55.78
2022-09-05T07:56:56.945Z,52.76
2022-09-05T07:57:09.786Z,53.49
2022-09-05T07:57:15.968Z,53.49
2022-09-05T07:57:50.995Z,51.49
2022-09-05T07:58:40.909Z,53.28
2022-09-05T07:59:40.907Z,56.86
2022-09-05T08:00:40.937Z,56.00
2022-09-05T08:01:40.905Z,55.83
2022-09-05T08:02:45.390Z,54.75
2022-09-05T08:03:41.876Z,55.26
2022-09-05T08:04:40.979Z,58.47
2022-09-05T08:05:40.897Z,54.43
2022-09-05T08:07:47.772Z,54.21
2022-09-05T08:07:49.271Z,53.63
2022-09-05T08:08:40.835Z,53.24
2022-09-05T08:10:05.920Z,55.85
2022-09-05T08:11:24.877Z,52.14
2022-09-05T08:11:41.813Z,53.37
2022-09-05T08:13:22.678Z,53.04
2022-09-05T08:13:41.778Z,54.67
2022-09-05T08:14:44.934Z,51.90
2022-09-05T08:16:00.738Z,53.41
2022-09-05T08:16:40.804Z,53.24
2022-09-05T08:17:40.740Z,53.51
2022-09-05T08:18:42.641Z,54.43
2022-09-05T08:19:40.732Z,51.61
2022-09-05T08:20:41.704Z,52.16
2022-09-05T08:21:40.691Z,52.80
2022-09-05T08:22:40.693Z,51.88
2022-09-05T08:23:41.685Z,56.00
2022-09-05T08:24:40.696Z,54.74
2022-09-05T08:25:57.266Z,54.91
2022-09-05T08:26:44.069Z,54.29
2022-09-05T08:27:41.640Z,54.31
2022-09-05T08:28:40.619Z,53.28
2022-09-05T08:29:40.661Z,52.14
2022-09-05T08:30:40.630Z,52.18
2022-09-05T08:31:42.276Z,53.65
2022-09-05T08:32:40.608Z,50.68
2022-09-05T08:33:40.576Z,52.43
2022-09-05T08:34:45.422Z,54.38
2022-09-05T08:35:41.581Z,54.28
2022-09-05T08:36:40.559Z,54.71
2022-09-05T08:37:40.573Z,52.29
2022-09-05T08:38:41.211Z,56.04
2022-09-05T08:39:40.599Z,54.33
2022-09-05T08:40:40.532Z,55.74
2022-09-05T08:41:49.486Z,55.42
2022-09-05T08:42:45.578Z,53.50
2022-09-05T08:46:40.902Z,52.45
2022-09-05T08:46:44.299Z,54.78
2022-09-05T08:46:44.406Z,50.99
2022-09-05T08:46:49.201Z,57.22
2022-09-05T08:47:45.939Z,52.39
2022-09-05T08:48:40.483Z,52.30
2022-09-05T08:49:45.994Z,53.50
2022-09-05T08:50:41.451Z,53.41
2022-09-05T08:51:41.847Z,53.58
2022-09-05T08:52:41.456Z,52.78
2022-09-05T08:53:46.472Z,54.21
2022-09-05T08:54:40.393Z,56.98
2022-09-05T08:55:40.393Z,52.09
2022-09-05T08:56:40.376Z,53.85
2022-09-05T08:57:40.392Z,52.64
2022-09-05T08:58:40.358Z,53.08
2022-09-05T09:00:02.749Z,52.86
2022-09-05T09:00:40.376Z,50.19
2022-09-05T09:02:09.159Z,57.80
2022-09-05T09:02:47.426Z,49.43
2022-09-05T09:03:41.422Z,52.83
2022-09-05T09:05:02.260Z,51.81
2022-09-05T09:06:12.121Z,58.59
2022-09-05T09:06:40.285Z,53.30
2022-09-05T09:07:50.771Z,53.16
2022-09-05T09:08:41.287Z,51.25
2022-09-05T09:09:40.252Z,52.99
2022-09-05T09:10:40.245Z,50.39
2022-09-05T09:11:40.233Z,51.60
2022-09-05T09:12:40.228Z,55.84
2022-09-05T09:13:40.246Z,53.96
2022-09-05T09:14:40.233Z,54.64
2022-09-05T09:15:40.186Z,52.33
2022-09-05T09:16:41.191Z,51.70
2022-09-05T09:17:40.182Z,50.27
2022-09-05T09:18:40.159Z,50.18
2022-09-05T09:19:40.178Z,51.60
2022-09-05T09:20:45.121Z,51.98
2022-09-05T09:21:41.143Z,52.39
2022-09-05T09:22:40.125Z,52.66
2022-09-05T09:23:40.264Z,51.51
2022-09-05T09:24:40.124Z,52.03
2022-09-05T09:25:40.129Z,51.78
2022-09-05T09:26:40.101Z,52.70
2022-09-05T09:28:46.709Z,51.35
2022-09-05T09:28:47.424Z,51.68
2022-09-05T09:29:40.096Z,52.42
2022-09-05T09:30:40.063Z,52.91
2022-09-05T09:31:40.257Z,52.34
2022-09-05T09:32:40.035Z,50.58
2022-09-05T09:33:40.044Z,51.11
2022-09-05T09:34:41.872Z,50.89
2022-09-05T09:35:40.018Z,52.06
2022-09-05T09:36:40.041Z,51.91
2022-09-05T09:37:51.035Z,50.68
2022-09-05T09:38:40.989Z,52.39
2022-09-05T09:39:40.027Z,50.64
2022-09-05T09:40:39.968Z,50.77
2022-09-05T09:41:39.960Z,53.49
2022-09-05T09:42:39.975Z,51.18
2022-09-05T09:43:39.942Z,53.51
2022-09-05T09:44:40.932Z,53.76
2022-09-05T09:45:39.922Z,52.08
2022-09-05T09:46:39.973Z,50.71
2022-09-05T09:47:39.911Z,51.89
2022-09-05T09:48:39.880Z,54.57
2022-09-05T09:49:39.876Z,51.70
2022-09-05T09:50:45.136Z,53.10
2022-09-05T09:51:40.875Z,54.46
2022-09-05T09:52:39.845Z,51.70
2022-09-05T09:53:39.848Z,52.15
2022-09-05T09:54:39.854Z,55.55
2022-09-05T09:55:39.819Z,51.24
2022-09-05T09:56:39.811Z,54.67
2022-09-05T09:57:39.816Z,52.59
2022-09-05T09:58:39.815Z,50.45
2022-09-05T09:59:54.156Z,51.61
2022-09-05T10:00:40.782Z,51.79
2022-09-05T10:01:39.808Z,51.83
2022-09-05T10:06:27.146Z,52.31
2022-09-05T10:07:05.969Z,53.11
2022-09-05T10:10:35.211Z,51.06
2022-09-05T10:10:46.656Z,48.36
2022-09-05T10:10:48.306Z,49.63
2022-09-05T10:10:49.029Z,50.54
2022-09-05T10:10:49.031Z,51.91
2022-09-05T10:10:58.713Z,51.28
2022-09-05T10:11:02.399Z,52.81
2022-09-05T10:11:57.084Z,52.76
2022-09-05T10:12:41.690Z,51.78
2022-09-05T10:13:39.661Z,52.09
2022-09-05T10:14:50.817Z,53.30
2022-09-05T10:15:39.693Z,51.64
2022-09-05T10:16:39.630Z,52.15
2022-09-05T10:17:39.644Z,51.35
2022-09-05T10:18:39.627Z,51.41
2022-09-05T10:20:10.421Z,50.51
2022-09-05T10:20:41.644Z,51.83
2022-09-05T10:21:39.596Z,50.35
2022-09-05T10:22:39.576Z,53.43
2022-09-05T10:23:44.723Z,55.90
2022-09-05T10:24:39.554Z,51.72
2022-09-05T10:25:39.691Z,52.32
2022-09-05T10:26:39.549Z,53.08
2022-09-05T10:27:44.582Z,55.97
2022-09-05T10:28:39.528Z,52.25
2022-09-05T10:29:39.512Z,52.10
2022-09-05T10:32:10.350Z,53.03
2022-09-05T10:34:00.742Z,52.07
2022-09-05T10:35:05.289Z,51.22
2022-09-05T10:35:08.676Z,52.10
2022-09-05T10:35:22.836Z,51.04
2022-09-05T10:35:40.495Z,53.76
2022-09-05T10:36:39.444Z,54.20
2022-09-05T10:37:39.455Z,55.15
2022-09-05T10:38:39.419Z,53.49
2022-09-05T10:39:39.437Z,54.18
2022-09-05T10:41:09.686Z,52.05
2022-09-05T10:41:40.402Z,55.87
2022-09-05T10:42:39.871Z,55.35
2022-09-05T10:43:40.378Z,54.36
2022-09-05T10:44:39.364Z,55.03
2022-09-05T10:45:39.386Z,55.34
2022-09-05T10:46:50.651Z,53.96
2022-09-05T10:47:41.340Z,53.30
2022-09-05T10:48:39.332Z,53.03
2022-09-05T10:49:39.315Z,53.73
2022-09-05T10:50:40.330Z,51.33
2022-09-05T10:51:39.300Z,53.47
2022-09-05T10:52:39.356Z,52.71
2022-09-05T10:53:40.148Z,59.44
2022-09-05T10:54:39.309Z,61.02
2022-09-05T10:55:39.277Z,58.41
2022-09-05T10:56:39.280Z,53.74
2022-09-05T10:57:39.258Z,54.00
2022-09-05T10:58:39.229Z,49.90
2022-09-05T11:02:22.998Z,52.11
2022-09-05T11:02:24.775Z,53.17
2022-09-05T11:02:29.399Z,53.49
2022-09-05T11:02:45.451Z,55.54
2022-09-05T11:03:41.269Z,72.66
2022-09-05T11:04:46.681Z,55.85
2022-09-05T11:05:40.252Z,56.11
2022-09-05T11:06:39.169Z,51.63
2022-09-05T11:07:39.140Z,52.31
2022-09-05T11:08:39.146Z,55.05
2022-09-05T11:09:39.130Z,55.29
2022-09-05T11:10:39.141Z,55.19
2022-09-05T11:11:39.114Z,53.41
2022-09-05T11:12:39.104Z,53.14
2022-09-05T11:13:39.103Z,52.08
2022-09-05T11:14:39.076Z,52.88
2022-09-05T11:15:39.257Z,55.07
2022-09-05T11:16:40.156Z,50.27
2022-09-05T11:17:39.053Z,53.08
2022-09-05T11:18:54.909Z,53.75
2022-09-05T11:19:40.054Z,51.98
2022-09-05T11:20:39.068Z,52.93
2022-09-05T11:21:39.007Z,52.86
2022-09-05T11:22:39.012Z,51.00
2022-09-05T11:23:38.987Z,50.61
2022-09-05T11:24:39.011Z,52.53
2022-09-05T11:25:40.597Z,53.49
2022-09-05T11:26:38.956Z,53.29
2022-09-05T11:27:38.952Z,59.58
2022-09-05T11:28:57.614Z,54.17
2022-09-05T11:29:38.944Z,55.56
2022-09-05T11:30:38.986Z,55.09
2022-09-05T11:33:53.461Z,53.02
2022-09-05T11:39:12.154Z,53.62
2022-09-05T11:39:53.322Z,53.25
2022-09-05T11:39:53.714Z,53.05
2022-09-05T11:39:54.100Z,52.57
2022-09-05T11:39:59.806Z,53.39
2022-09-05T11:40:02.602Z,54.44
2022-09-05T11:40:07.050Z,54.18
2022-09-05T11:40:21.236Z,56.36
2022-09-05T11:40:54.919Z,53.28
2022-09-05T11:41:39.866Z,55.17
2022-09-05T11:42:38.835Z,53.05
2022-09-05T11:43:38.804Z,51.98
2022-09-05T11:44:38.787Z,53.05
2022-09-05T11:45:38.852Z,54.45
2022-09-05T11:46:38.809Z,51.43
2022-09-05T11:47:43.634Z,53.21
2022-09-05T11:48:44.603Z,51.17
2022-09-05T11:49:39.766Z,52.62
2022-09-05T11:50:38.754Z,52.43
2022-09-05T11:51:38.754Z,53.48
2022-09-05T11:52:38.723Z,51.70
2022-09-05T11:53:38.708Z,52.35
2022-09-05T11:54:38.710Z,52.15
2022-09-05T11:55:38.714Z,51.66
2022-09-05T11:56:45.806Z,53.48
2022-09-05T11:57:39.673Z,51.33
2022-09-05T11:58:44.923Z,51.65
2022-09-05T11:59:39.669Z,53.05
2022-09-05T12:00:38.654Z,53.25
2022-09-05T12:01:42.948Z,53.36
2022-09-05T12:02:39.679Z,53.03
2022-09-05T12:03:58.869Z,52.66
2022-09-05T12:04:39.697Z,55.33
2022-09-05T12:05:49.349Z,53.41
2022-09-05T12:06:47.776Z,56.39
2022-09-05T12:07:39.597Z,58.31
2022-09-05T12:08:38.603Z,51.55
2022-09-05T12:09:38.562Z,54.90
2022-09-05T12:10:38.618Z,55.40
2022-09-05T12:11:39.554Z,57.60
2022-09-05T12:12:41.367Z,54.06
2022-09-05T12:13:38.552Z,51.72
2022-09-05T12:14:42.437Z,51.36
2022-09-05T12:15:38.554Z,51.38
2022-09-05T12:16:39.532Z,51.65
2022-09-05T12:17:38.485Z,51.63
2022-09-05T12:18:38.478Z,51.69
2022-09-05T12:19:38.488Z,53.44
2022-09-05T12:20:43.674Z,54.12
2022-09-05T12:21:39.486Z,51.69
2022-09-05T12:22:38.441Z,52.28
2022-09-05T12:23:53.728Z,55.76
2022-09-05T12:25:25.625Z,53.72
2022-09-05T12:27:40.162Z,53.32
2022-09-05T12:27:40.844Z,52.06
2022-09-05T12:27:46.125Z,50.78
2022-09-05T12:29:29.556Z,52.88
2022-09-05T12:29:48.661Z,52.15
2022-09-05T12:30:58.659Z,52.03
2022-09-05T12:33:28.395Z,53.66
2022-09-05T12:35:52.896Z,52.12
2022-09-05T12:36:06.284Z,51.93
2022-09-05T12:36:07.239Z,53.01
2022-09-05T12:36:08.654Z,53.82
2022-09-05T12:40:48.169Z,55.23
2022-09-05T12:40:55.705Z,53.05
2022-09-05T12:40:56.055Z,52.64
2022-09-05T12:40:57.991Z,52.34
2022-09-05T12:41:35.733Z,53.21
2022-09-05T12:42:10.309Z,58.09
2022-09-05T12:42:54.762Z,52.97
2022-09-05T12:44:39.009Z,52.99
2022-09-05T12:44:44.114Z,56.91
2022-09-05T12:45:39.340Z,51.44
2022-09-05T12:46:38.216Z,55.04
2022-09-05T12:47:38.207Z,54.86
2022-09-05T12:48:38.592Z,54.08
2022-09-05T12:49:38.215Z,56.24
2022-09-05T12:50:38.177Z,54.05
2022-09-05T12:51:46.751Z,52.08
2022-09-05T12:52:38.156Z,52.61